Hauptseite
METAR-TAF:

METAR-TAF

Flughäfen :

Flughafen Stettin-Goleniów

Stettin, Polen

Breite: 53-35N, Länge: 014-54E, Höhe: 1 m

Beobachtung

Neuester Wetterbericht von vor 41 Minuten, um 22:30 UTC
Wind 9 kt aus Südost
Temperatur 4°C
Luftfeuchtigkeit 93%
Luftdruck 1005 hPa
Sichtweite 10 km oder mehr
keine Wolken unter 1500 m und keine Kumulonimbus oder Gewitterwolken

METAR: EPSC 122230Z 13009KT CAVOK 04/03 Q1005

Zeit: 00:11 (23:11 UTC)

Prognose

Neuester Wetterbericht von vor 5 Stunden und 41 Minuten, um 17:30 UTC
Gültige Prognose vom 12 um 18 UTC bis 13 um 18 UTC
Wind 7 kt aus Süd/Südost
Sichtweite 10 km oder mehr
keine Wolken unter 1500 m und keine Kumulonimbus oder Gewitterwolken
Wahrscheinlichkeit 40% :
Zeitweise
vom 12 um 22 UTC bis 13 um 07 UTC
Sichtweite: 4000 m
Durchbrochene Bewölkung in der Höhe von 800 ft
feuchter Dunst

TAF: EPSC 121730Z 1218/1318 16007KT CAVOK PROB40 TEMPO 1222/1307 4000 BR BKN008

Wetterbeobachtungen und Prognosen von mehr als 4000 Flughäfen (METAR und TAF Bericht).

Die verfügbaren Stationen werden durch gelbe und rote Markierungen auf der Karte dargestellt.

Führen Sie die Maus auf sie, um den Namen der Station zu sehen.

Darauf klicken, um die Beobachtung von Wetterbeobachtungen und Prognosen zu sehen.

Um die Karte zu ändern : klicken Sie auf den grünen Tasten mit einem schwarzen Kreuz Zum Vergrößern, auf den grünen Button mit einem Gedankenstrich zu verkleinern, oder auf die grünen Pfeile für benachbarte Karten.


METAR-TAF: